sensor_id;sensor_type;location;lat;lon;timestamp;P1;durP1;ratioP1;P2;durP2;ratioP2
45520;SDS011;61151;50.928;4.534;2022-08-18T00:01:50;14.82;;;12.13;;
45520;SDS011;61151;50.928;4.534;2022-08-18T00:04:20;18.13;;;15.60;;
45520;SDS011;61151;50.928;4.534;2022-08-18T00:07:02;19.98;;;15.95;;
45520;SDS011;61151;50.928;4.534;2022-08-18T00:09:29;16.45;;;13.18;;
45520;SDS011;61151;50.928;4.534;2022-08-18T00:11:59;21.55;;;18.02;;
45520;SDS011;61151;50.928;4.534;2022-08-18T00:14:26;15.52;;;13.18;;
45520;SDS011;61151;50.928;4.534;2022-08-18T00:16:53;24.08;;;17.30;;
45520;SDS011;61151;50.928;4.534;2022-08-18T00:19:20;18.95;;;15.05;;
45520;SDS011;61151;50.928;4.534;2022-08-18T00:22:08;21.65;;;15.40;;
45520;SDS011;61151;50.928;4.534;2022-08-18T00:24:41;29.52;;;22.92;;
45520;SDS011;61151;50.928;4.534;2022-08-18T00:27:15;23.40;;;18.00;;
45520;SDS011;61151;50.928;4.534;2022-08-18T00:29:44;28.98;;;22.25;;
45520;SDS011;61151;50.928;4.534;2022-08-18T00:32:11;38.00;;;27.88;;
45520;SDS011;61151;50.928;4.534;2022-08-18T00:34:39;33.05;;;24.80;;
45520;SDS011;61151;50.928;4.534;2022-08-18T00:37:06;72.85;;;47.67;;
45520;SDS011;61151;50.928;4.534;2022-08-18T00:39:32;50.78;;;36.35;;
45520;SDS011;61151;50.928;4.534;2022-08-18T00:42:12;24.40;;;18.48;;
45520;SDS011;61151;50.928;4.534;2022-08-18T00:44:54;18.75;;;14.73;;
45520;SDS011;61151;50.928;4.534;2022-08-18T00:47:21;20.92;;;16.58;;
45520;SDS011;61151;50.928;4.534;2022-08-18T00:50:09;23.33;;;17.27;;
45520;SDS011;61151;50.928;4.534;2022-08-18T00:52:42;35.53;;;25.23;;
45520;SDS011;61151;50.928;4.534;2022-08-18T00:55:15;50.65;;;34.10;;
45520;SDS011;61151;50.928;4.534;2022-08-18T00:57:43;28.00;;;21.70;;
45520;SDS011;61151;50.928;4.534;2022-08-18T01:00:12;29.50;;;21.40;;
45520;SDS011;61151;50.928;4.534;2022-08-18T01:02:44;69.65;;;49.72;;
45520;SDS011;61151;50.928;4.534;2022-08-18T01:07:41;40.53;;;28.75;;
45520;SDS011;61151;50.928;4.534;2022-08-18T01:10:12;42.33;;;29.52;;
45520;SDS011;61151;50.928;4.534;2022-08-18T01:12:42;50.33;;;36.47;;
45520;SDS011;61151;50.928;4.534;2022-08-18T01:15:13;81.07;;;52.47;;
45520;SDS011;61151;50.928;4.534;2022-08-18T01:17:56;41.80;;;30.63;;
45520;SDS011;61151;50.928;4.534;2022-08-18T01:20:54;40.13;;;29.15;;
45520;SDS011;61151;50.928;4.534;2022-08-18T01:23:39;28.90;;;21.63;;
45520;SDS011;61151;50.928;4.534;2022-08-18T01:26:06;63.83;;;42.78;;
45520;SDS011;61151;50.928;4.534;2022-08-18T01:28:36;57.72;;;40.10;;
45520;SDS011;61151;50.928;4.534;2022-08-18T01:31:03;57.58;;;39.15;;
45520;SDS011;61151;50.928;4.534;2022-08-18T01:33:32;79.47;;;51.50;;
45520;SDS011;61151;50.928;4.534;2022-08-18T01:36:00;77.57;;;50.30;;
45520;SDS011;61151;50.928;4.534;2022-08-18T01:38:28;79.90;;;51.75;;
45520;SDS011;61151;50.928;4.534;2022-08-18T01:40:57;79.75;;;53.00;;
45520;SDS011;61151;50.928;4.534;2022-08-18T01:43:45;90.93;;;59.42;;
45520;SDS011;61151;50.928;4.534;2022-08-18T01:46:18;87.10;;;54.42;;
45520;SDS011;61151;50.928;4.534;2022-08-18T01:48:45;77.70;;;47.70;;
45520;SDS011;61151;50.928;4.534;2022-08-18T01:51:14;75.20;;;49.78;;
45520;SDS011;61151;50.928;4.534;2022-08-18T01:53:40;80.55;;;51.15;;
45520;SDS011;61151;50.928;4.534;2022-08-18T01:56:07;86.72;;;55.88;;
45520;SDS011;61151;50.928;4.534;2022-08-18T01:58:34;95.97;;;60.30;;
45520;SDS011;61151;50.928;4.534;2022-08-18T02:01:01;94.72;;;60.97;;
45520;SDS011;61151;50.928;4.534;2022-08-18T02:03:30;65.82;;;42.92;;
45520;SDS011;61151;50.928;4.534;2022-08-18T02:05:59;65.43;;;41.20;;
45520;SDS011;61151;50.928;4.534;2022-08-18T02:08:26;85.60;;;55.65;;
45520;SDS011;61151;50.928;4.534;2022-08-18T02:10:54;64.18;;;40.47;;
45520;SDS011;61151;50.928;4.534;2022-08-18T02:13:24;74.05;;;48.60;;
45520;SDS011;61151;50.928;4.534;2022-08-18T02:15:51;68.50;;;42.60;;
45520;SDS011;61151;50.928;4.534;2022-08-18T02:18:19;88.45;;;53.50;;
45520;SDS011;61151;50.928;4.534;2022-08-18T02:21:11;96.18;;;61.88;;
45520;SDS011;61151;50.928;4.534;2022-08-18T02:23:44;91.68;;;57.78;;
45520;SDS011;61151;50.928;4.534;2022-08-18T02:26:19;75.05;;;48.15;;
45520;SDS011;61151;50.928;4.534;2022-08-18T02:28:46;61.17;;;38.67;;
45520;SDS011;61151;50.928;4.534;2022-08-18T02:31:14;75.10;;;46.13;;
45520;SDS011;61151;50.928;4.534;2022-08-18T02:33:41;36.78;;;27.00;;
45520;SDS011;61151;50.928;4.534;2022-08-18T02:36:17;28.67;;;21.02;;
45520;SDS011;61151;50.928;4.534;2022-08-18T02:38:44;43.28;;;29.40;;
45520;SDS011;61151;50.928;4.534;2022-08-18T02:41:21;29.17;;;19.95;;
45520;SDS011;61151;50.928;4.534;2022-08-18T02:43:49;36.35;;;24.85;;
45520;SDS011;61151;50.928;4.534;2022-08-18T02:46:16;37.35;;;25.85;;
45520;SDS011;61151;50.928;4.534;2022-08-18T02:48:43;33.13;;;22.17;;
45520;SDS011;61151;50.928;4.534;2022-08-18T02:51:10;27.10;;;18.65;;
45520;SDS011;61151;50.928;4.534;2022-08-18T02:53:38;28.45;;;20.08;;
45520;SDS011;61151;50.928;4.534;2022-08-18T02:56:07;37.47;;;25.42;;
45520;SDS011;61151;50.928;4.534;2022-08-18T02:59:13;38.28;;;26.02;;
45520;SDS011;61151;50.928;4.534;2022-08-18T03:01:41;35.53;;;25.20;;
45520;SDS011;61151;50.928;4.534;2022-08-18T03:04:09;41.30;;;27.13;;
45520;SDS011;61151;50.928;4.534;2022-08-18T03:06:36;34.90;;;24.63;;
45520;SDS011;61151;50.928;4.534;2022-08-18T03:09:04;34.05;;;23.33;;
45520;SDS011;61151;50.928;4.534;2022-08-18T03:11:31;30.30;;;22.27;;
45520;SDS011;61151;50.928;4.534;2022-08-18T03:13:58;30.00;;;22.85;;
45520;SDS011;61151;50.928;4.534;2022-08-18T03:16:27;21.60;;;17.92;;
45520;SDS011;61151;50.928;4.534;2022-08-18T03:18:58;28.38;;;20.15;;
45520;SDS011;61151;50.928;4.534;2022-08-18T03:21:26;18.58;;;16.58;;
45520;SDS011;61151;50.928;4.534;2022-08-18T03:23:54;31.02;;;23.13;;
45520;SDS011;61151;50.928;4.534;2022-08-18T03:26:27;59.83;;;38.40;;
45520;SDS011;61151;50.928;4.534;2022-08-18T03:28:55;31.77;;;23.60;;
45520;SDS011;61151;50.928;4.534;2022-08-18T03:31:23;27.77;;;20.95;;
45520;SDS011;61151;50.928;4.534;2022-08-18T03:33:54;21.77;;;17.75;;
45520;SDS011;61151;50.928;4.534;2022-08-18T03:36:25;26.92;;;19.20;;
45520;SDS011;61151;50.928;4.534;2022-08-18T03:38:52;22.08;;;16.02;;
45520;SDS011;61151;50.928;4.534;2022-08-18T03:41:21;19.55;;;15.48;;
45520;SDS011;61151;50.928;4.534;2022-08-18T03:44:12;21.30;;;17.05;;
45520;SDS011;61151;50.928;4.534;2022-08-18T03:46:40;21.35;;;16.77;;
45520;SDS011;61151;50.928;4.534;2022-08-18T03:49:07;16.83;;;13.70;;
45520;SDS011;61151;50.928;4.534;2022-08-18T03:51:35;24.02;;;17.45;;
45520;SDS011;61151;50.928;4.534;2022-08-18T03:54:03;17.83;;;15.18;;
45520;SDS011;61151;50.928;4.534;2022-08-18T03:56:33;19.42;;;14.73;;
45520;SDS011;61151;50.928;4.534;2022-08-18T03:59:03;28.48;;;20.58;;
45520;SDS011;61151;50.928;4.534;2022-08-18T04:01:32;24.88;;;17.15;;
45520;SDS011;61151;50.928;4.534;2022-08-18T04:04:02;23.95;;;18.48;;
45520;SDS011;61151;50.928;4.534;2022-08-18T04:06:31;21.08;;;16.92;;
45520;SDS011;61151;50.928;4.534;2022-08-18T04:08:59;25.75;;;19.58;;
45520;SDS011;61151;50.928;4.534;2022-08-18T04:11:26;25.92;;;19.08;;
45520;SDS011;61151;50.928;4.534;2022-08-18T04:14:02;20.73;;;16.73;;
45520;SDS011;61151;50.928;4.534;2022-08-18T04:16:30;19.13;;;16.20;;
45520;SDS011;61151;50.928;4.534;2022-08-18T04:19:04;27.92;;;21.85;;
45520;SDS011;61151;50.928;4.534;2022-08-18T04:21:31;48.35;;;34.72;;
45520;SDS011;61151;50.928;4.534;2022-08-18T04:23:58;23.10;;;18.05;;
45520;SDS011;61151;50.928;4.534;2022-08-18T04:26:30;20.95;;;17.83;;
45520;SDS011;61151;50.928;4.534;2022-08-18T04:28:58;21.23;;;17.33;;
45520;SDS011;61151;50.928;4.534;2022-08-18T04:31:27;27.95;;;21.60;;
45520;SDS011;61151;50.928;4.534;2022-08-18T04:33:57;32.47;;;24.98;;
45520;SDS011;61151;50.928;4.534;2022-08-18T04:36:26;32.58;;;24.52;;
45520;SDS011;61151;50.928;4.534;2022-08-18T04:38:53;44.85;;;32.08;;
45520;SDS011;61151;50.928;4.534;2022-08-18T04:41:22;34.45;;;26.50;;
45520;SDS011;61151;50.928;4.534;2022-08-18T04:43:54;33.00;;;25.08;;
45520;SDS011;61151;50.928;4.534;2022-08-18T04:46:21;23.05;;;18.35;;
45520;SDS011;61151;50.928;4.534;2022-08-18T04:48:49;17.88;;;15.55;;
45520;SDS011;61151;50.928;4.534;2022-08-18T04:51:17;20.38;;;17.35;;
45520;SDS011;61151;50.928;4.534;2022-08-18T04:54:04;20.00;;;16.83;;
45520;SDS011;61151;50.928;4.534;2022-08-18T04:56:32;17.77;;;15.23;;
45520;SDS011;61151;50.928;4.534;2022-08-18T04:59:01;29.65;;;23.33;;
45520;SDS011;61151;50.928;4.534;2022-08-18T05:01:30;25.75;;;19.52;;
45520;SDS011;61151;50.928;4.534;2022-08-18T05:04:03;38.13;;;28.60;;
45520;SDS011;61151;50.928;4.534;2022-08-18T05:06:30;37.42;;;28.55;;
45520;SDS011;61151;50.928;4.534;2022-08-18T05:08:58;45.33;;;30.88;;
45520;SDS011;61151;50.928;4.534;2022-08-18T05:11:26;45.72;;;31.27;;
45520;SDS011;61151;50.928;4.534;2022-08-18T05:14:04;64.70;;;44.83;;
45520;SDS011;61151;50.928;4.534;2022-08-18T05:16:31;51.17;;;35.72;;
45520;SDS011;61151;50.928;4.534;2022-08-18T05:19:04;34.47;;;24.65;;
45520;SDS011;61151;50.928;4.534;2022-08-18T05:21:34;31.73;;;23.10;;
45520;SDS011;61151;50.928;4.534;2022-08-18T05:24:03;59.67;;;41.80;;
45520;SDS011;61151;50.928;4.534;2022-08-18T05:26:31;64.57;;;43.40;;
45520;SDS011;61151;50.928;4.534;2022-08-18T05:28:57;52.28;;;36.25;;
45520;SDS011;61151;50.928;4.534;2022-08-18T05:31:44;24.27;;;19.00;;
45520;SDS011;61151;50.928;4.534;2022-08-18T05:34:11;32.00;;;22.92;;
45520;SDS011;61151;50.928;4.534;2022-08-18T05:36:45;29.63;;;22.02;;
45520;SDS011;61151;50.928;4.534;2022-08-18T05:44:22;31.95;;;23.25;;
45520;SDS011;61151;50.928;4.534;2022-08-18T05:46:51;33.03;;;24.17;;
45520;SDS011;61151;50.928;4.534;2022-08-18T05:49:18;59.10;;;39.50;;
45520;SDS011;61151;50.928;4.534;2022-08-18T05:51:53;40.92;;;30.35;;
45520;SDS011;61151;50.928;4.534;2022-08-18T05:54:22;57.53;;;40.05;;
45520;SDS011;61151;50.928;4.534;2022-08-18T05:57:19;50.83;;;34.83;;
45520;SDS011;61151;50.928;4.534;2022-08-18T05:59:48;51.47;;;36.45;;
45520;SDS011;61151;50.928;4.534;2022-08-18T06:02:31;24.15;;;18.23;;
45520;SDS011;61151;50.928;4.534;2022-08-18T06:04:59;24.55;;;18.77;;
45520;SDS011;61151;50.928;4.534;2022-08-18T06:07:35;32.70;;;23.75;;
45520;SDS011;61151;50.928;4.534;2022-08-18T06:10:02;33.53;;;23.48;;
45520;SDS011;61151;50.928;4.534;2022-08-18T06:15:07;24.60;;;17.70;;
45520;SDS011;61151;50.928;4.534;2022-08-18T06:28:01;18.30;;;13.88;;
45520;SDS011;61151;50.928;4.534;2022-08-18T06:35:35;17.15;;;14.27;;
45520;SDS011;61151;50.928;4.534;2022-08-18T06:49:02;17.52;;;13.20;;
45520;SDS011;61151;50.928;4.534;2022-08-18T06:51:29;19.55;;;12.95;;
45520;SDS011;61151;50.928;4.534;2022-08-18T06:54:01;17.98;;;14.38;;
45520;SDS011;61151;50.928;4.534;2022-08-18T06:59:12;18.35;;;13.98;;
45520;SDS011;61151;50.928;4.534;2022-08-18T07:01:39;16.75;;;13.07;;
45520;SDS011;61151;50.928;4.534;2022-08-18T07:04:06;17.70;;;12.95;;
45520;SDS011;61151;50.928;4.534;2022-08-18T07:06:32;17.20;;;13.45;;
45520;SDS011;61151;50.928;4.534;2022-08-18T07:09:19;19.77;;;14.38;;
45520;SDS011;61151;50.928;4.534;2022-08-18T07:12:00;19.80;;;15.48;;
45520;SDS011;61151;50.928;4.534;2022-08-18T07:14:27;20.77;;;13.95;;
45520;SDS011;61151;50.928;4.534;2022-08-18T07:17:07;18.00;;;13.82;;
45520;SDS011;61151;50.928;4.534;2022-08-18T07:19:35;19.30;;;14.85;;
45520;SDS011;61151;50.928;4.534;2022-08-18T07:22:06;16.73;;;13.50;;
45520;SDS011;61151;50.928;4.534;2022-08-18T07:24:41;17.25;;;13.73;;
45520;SDS011;61151;50.928;4.534;2022-08-18T07:27:13;19.92;;;15.10;;
45520;SDS011;61151;50.928;4.534;2022-08-18T07:29:57;19.17;;;14.73;;
45520;SDS011;61151;50.928;4.534;2022-08-18T07:32:46;17.02;;;13.57;;
45520;SDS011;61151;50.928;4.534;2022-08-18T07:35:14;18.77;;;14.25;;
45520;SDS011;61151;50.928;4.534;2022-08-18T07:37:47;19.60;;;14.88;;
45520;SDS011;61151;50.928;4.534;2022-08-18T07:40:30;18.52;;;14.40;;
45520;SDS011;61151;50.928;4.534;2022-08-18T07:43:02;19.15;;;13.35;;
45520;SDS011;61151;50.928;4.534;2022-08-18T07:45:42;20.50;;;13.75;;
45520;SDS011;61151;50.928;4.534;2022-08-18T07:51:02;16.42;;;12.93;;
45520;SDS011;61151;50.928;4.534;2022-08-18T07:56:22;17.05;;;12.25;;
45520;SDS011;61151;50.928;4.534;2022-08-18T08:01:58;15.55;;;11.73;;
45520;SDS011;61151;50.928;4.534;2022-08-18T08:04:43;20.33;;;11.95;;
45520;SDS011;61151;50.928;4.534;2022-08-18T08:07:20;18.40;;;10.38;;
45520;SDS011;61151;50.928;4.534;2022-08-18T08:12:55;18.50;;;11.68;;
45520;SDS011;61151;50.928;4.534;2022-08-18T08:33:23;19.58;;;10.70;;
45520;SDS011;61151;50.928;4.534;2022-08-18T08:36:15;16.77;;;10.60;;
45520;SDS011;61151;50.928;4.534;2022-08-18T08:38:41;15.38;;;10.80;;
45520;SDS011;61151;50.928;4.534;2022-08-18T08:41:31;13.20;;;10.40;;
45520;SDS011;61151;50.928;4.534;2022-08-18T08:44:11;15.23;;;9.63;;
45520;SDS011;61151;50.928;4.534;2022-08-18T08:52:37;17.15;;;10.10;;
45520;SDS011;61151;50.928;4.534;2022-08-18T08:55:16;12.85;;;8.98;;
45520;SDS011;61151;50.928;4.534;2022-08-18T08:58:00;13.27;;;9.10;;
45520;SDS011;61151;50.928;4.534;2022-08-18T09:00:28;14.70;;;9.55;;
45520;SDS011;61151;50.928;4.534;2022-08-18T09:05:49;14.68;;;9.80;;
45520;SDS011;61151;50.928;4.534;2022-08-18T09:24:45;11.38;;;8.90;;
45520;SDS011;61151;50.928;4.534;2022-08-18T09:37:14;12.95;;;8.45;;
45520;SDS011;61151;50.928;4.534;2022-08-18T09:40:29;13.07;;;8.50;;
45520;SDS011;61151;50.928;4.534;2022-08-18T09:46:20;13.10;;;9.35;;
45520;SDS011;61151;50.928;4.534;2022-08-18T09:56:05;11.93;;;8.00;;
45520;SDS011;61151;50.928;4.534;2022-08-18T10:01:50;13.45;;;7.95;;
45520;SDS011;61151;50.928;4.534;2022-08-18T10:04:30;11.45;;;7.63;;
45520;SDS011;61151;50.928;4.534;2022-08-18T10:09:47;10.50;;;7.68;;
45520;SDS011;61151;50.928;4.534;2022-08-18T10:20:20;10.75;;;7.10;;
45520;SDS011;61151;50.928;4.534;2022-08-18T10:22:52;8.80;;;6.72;;
45520;SDS011;61151;50.928;4.534;2022-08-18T10:25:31;9.73;;;7.60;;
45520;SDS011;61151;50.928;4.534;2022-08-18T10:27:58;12.98;;;6.75;;
45520;SDS011;61151;50.928;4.534;2022-08-18T10:36:07;7.07;;;6.18;;
45520;SDS011;61151;50.928;4.534;2022-08-18T10:38:40;7.50;;;6.57;;
45520;SDS011;61151;50.928;4.534;2022-08-18T10:41:19;6.95;;;6.07;;
45520;SDS011;61151;50.928;4.534;2022-08-18T10:43:47;8.75;;;6.03;;
45520;SDS011;61151;50.928;4.534;2022-08-18T10:46:35;10.30;;;6.57;;
45520;SDS011;61151;50.928;4.534;2022-08-18T10:51:42;8.00;;;7.18;;
45520;SDS011;61151;50.928;4.534;2022-08-18T11:00:00;11.30;;;7.40;;
45520;SDS011;61151;50.928;4.534;2022-08-18T11:02:39;8.98;;;6.97;;
45520;SDS011;61151;50.928;4.534;2022-08-18T11:05:10;8.23;;;7.18;;
45520;SDS011;61151;50.928;4.534;2022-08-18T11:07:37;8.55;;;6.72;;
